createdAt,value
2023-12-29T00:01:34.286Z,99401.50
2023-12-29T00:04:01.838Z,99391.84
2023-12-29T00:06:28.420Z,99387.59
2023-12-29T00:08:54.967Z,99384.88
2023-12-29T00:11:22.181Z,99369.19
2023-12-29T00:13:49.398Z,99369.28
2023-12-29T00:16:16.775Z,99383.09
2023-12-29T00:18:43.654Z,99375.41
2023-12-29T00:21:10.421Z,99389.28
2023-12-29T00:23:37.025Z,99370.13
2023-12-29T00:26:03.576Z,99378.97
2023-12-29T00:28:30.072Z,99348.25
2023-12-29T00:31:01.534Z,99373.72
2023-12-29T00:33:30.702Z,99378.13
2023-12-29T00:35:57.671Z,99383.19
2023-12-29T00:38:24.255Z,99379.06
2023-12-29T00:40:50.784Z,99382.34
2023-12-29T00:43:17.643Z,99385.91
2023-12-29T00:45:46.006Z,99389.50
2023-12-29T00:48:13.135Z,99389.38
2023-12-29T00:50:39.907Z,99389.50
2023-12-29T00:53:06.610Z,99396.44
2023-12-29T00:55:33.181Z,99386.94
2023-12-29T00:57:59.959Z,99387.59
2023-12-29T01:00:26.751Z,99400.03
2023-12-29T01:02:53.371Z,99399.81
2023-12-29T01:05:20.028Z,99385.91
2023-12-29T01:07:46.611Z,99389.50
2023-12-29T01:10:13.306Z,99396.31
2023-12-29T01:12:39.882Z,99389.28
2023-12-29T01:15:06.927Z,99393.69
2023-12-29T01:17:33.503Z,99392.84
2023-12-29T01:20:00.306Z,99378.97
2023-12-29T01:22:27.209Z,99381.59
2023-12-29T01:24:54.159Z,99386.66
2023-12-29T01:27:20.721Z,99378.88
2023-12-29T01:29:47.372Z,99383.28
2023-12-29T01:32:15.195Z,99377.06
2023-12-29T01:34:41.906Z,99368.94
2023-12-29T01:37:08.617Z,99374.63
2023-12-29T01:39:36.242Z,99372.88
2023-12-29T01:42:02.996Z,99372.66
2023-12-29T01:44:29.600Z,99382.34
2023-12-29T01:46:59.877Z,99382.34
2023-12-29T01:49:26.926Z,99372.94
2023-12-29T01:51:56.917Z,99377.06
2023-12-29T01:54:25.477Z,99377.06
2023-12-29T01:56:56.499Z,99376.13
2023-12-29T01:59:26.328Z,99367.59
2023-12-29T02:01:56.898Z,99373.50
2023-12-29T02:04:27.200Z,99369.19
2023-12-29T02:06:54.643Z,99365.59
2023-12-29T02:09:21.594Z,99356.13
2023-12-29T02:11:49.251Z,99357.72
2023-12-29T02:14:17.921Z,99367.38
2023-12-29T02:17:03.076Z,99362.06
2023-12-29T02:19:45.815Z,99362.06
2023-12-29T02:22:13.558Z,99357.81
2023-12-29T02:24:41.158Z,99350.69
2023-12-29T02:27:25.726Z,99352.44
2023-12-29T02:30:19.993Z,99336.66
2023-12-29T02:32:48.163Z,99341.09
2023-12-29T02:35:19.723Z,99338.38
2023-12-29T02:37:47.195Z,99332.34
2023-12-29T02:40:15.471Z,99329.00
2023-12-29T02:42:49.682Z,99334.25
2023-12-29T02:45:19.301Z,99326.13
2023-12-29T02:47:46.340Z,99325.31
2023-12-29T02:50:13.464Z,99329.53
2023-12-29T02:52:40.032Z,99327.00
2023-12-29T02:55:06.997Z,99321.75
2023-12-29T02:57:33.701Z,99326.06
2023-12-29T03:00:00.397Z,99322.66
2023-12-29T03:02:27.036Z,99335.63
2023-12-29T03:04:53.569Z,99315.38
2023-12-29T03:07:20.203Z,99315.63
2023-12-29T03:09:46.829Z,99315.63
2023-12-29T03:12:13.451Z,99312.25
2023-12-29T03:14:40.075Z,99320.03
2023-12-29T03:17:06.617Z,99315.53
2023-12-29T03:19:33.463Z,99319.00
2023-12-29T03:22:00.108Z,99305.00
2023-12-29T03:24:26.626Z,99293.31
2023-12-29T03:26:53.171Z,99301.44
2023-12-29T03:29:19.716Z,99302.38
2023-12-29T03:31:46.447Z,99306.81
2023-12-29T03:34:13.056Z,99316.25
2023-12-29T03:36:39.772Z,99293.38
2023-12-29T03:39:06.368Z,99305.97
2023-12-29T03:41:33.028Z,99287.22
2023-12-29T03:44:00.679Z,99312.91
2023-12-29T03:46:27.280Z,99313.84
2023-12-29T03:48:54.124Z,99318.16
2023-12-29T03:51:21.850Z,99317.09
2023-12-29T03:53:48.458Z,99313.75
2023-12-29T03:56:19.460Z,99300.13
2023-12-29T03:58:46.821Z,99305.75
2023-12-29T04:01:14.642Z,99314.47
2023-12-29T04:03:42.390Z,99301.53
2023-12-29T04:06:09.257Z,99296.16
2023-12-29T04:08:36.113Z,99288.16
2023-12-29T04:11:03.575Z,99283.84
2023-12-29T04:13:30.335Z,99268.69
2023-12-29T04:15:57.039Z,99282.91
2023-12-29T04:18:24.781Z,99275.88
2023-12-29T04:20:51.394Z,99280.50
2023-12-29T04:23:18.070Z,99281.34
2023-12-29T04:25:44.617Z,99285.75
2023-12-29T04:28:11.192Z,99287.31
2023-12-29T04:30:37.846Z,99296.28
2023-12-29T04:33:04.890Z,99299.44
2023-12-29T04:35:31.698Z,99297.13
2023-12-29T04:37:58.325Z,99312.59
2023-12-29T04:40:24.950Z,99313.56
2023-12-29T04:42:51.569Z,99312.78
2023-12-29T04:45:18.380Z,99313.75
2023-12-29T04:47:44.843Z,99317.03
2023-12-29T04:50:11.505Z,99311.00
2023-12-29T04:52:38.044Z,99310.16
2023-12-29T04:55:04.974Z,99304.47
2023-12-29T04:57:31.532Z,99318.81
2023-12-29T04:59:58.053Z,99318.72
2023-12-29T05:02:24.634Z,99325.75
2023-12-29T05:04:51.315Z,99316.19
2023-12-29T05:07:17.931Z,99320.50
2023-12-29T05:09:44.611Z,99325.75
2023-12-29T05:12:11.718Z,99320.50
2023-12-29T05:14:38.253Z,99318.59
2023-12-29T05:17:04.800Z,99308.28
2023-12-29T05:19:31.497Z,99317.09
2023-12-29T05:21:58.003Z,99327.44
2023-12-29T05:24:24.560Z,99324.06
2023-12-29T05:26:51.082Z,99323.97
2023-12-29T05:29:17.691Z,99321.22
2023-12-29T05:31:44.346Z,99314.47
2023-12-29T05:34:10.958Z,99325.75
2023-12-29T05:36:38.187Z,99325.66
2023-12-29T05:39:04.929Z,99318.81
2023-12-29T05:41:31.755Z,99323.84
2023-12-29T05:43:59.144Z,99323.84
2023-12-29T05:46:25.956Z,99322.19
2023-12-29T05:48:53.757Z,99329.13
2023-12-29T05:51:21.345Z,99322.28
2023-12-29T05:53:47.954Z,99332.69
2023-12-29T05:56:15.292Z,99332.69
2023-12-29T05:58:43.675Z,99330.00
2023-12-29T06:01:10.863Z,99331.03
2023-12-29T06:03:37.732Z,99328.38
2023-12-29T06:06:04.313Z,99322.09
2023-12-29T06:08:31.164Z,99318.59
2023-12-29T06:10:57.757Z,99314.22
2023-12-29T06:13:24.499Z,99316.06
2023-12-29T06:15:51.170Z,99310.69
2023-12-29T06:18:17.993Z,99301.06
2023-12-29T06:20:44.692Z,99296.81
2023-12-29T06:23:11.764Z,99297.53
2023-12-29T06:25:40.742Z,99299.25
2023-12-29T06:28:07.992Z,99301.13
2023-12-29T06:30:35.269Z,99303.75
2023-12-29T06:33:02.325Z,99304.53
2023-12-29T06:35:29.111Z,99306.19
2023-12-29T06:37:55.941Z,99305.34
2023-12-29T06:40:22.679Z,99294.84
2023-12-29T06:42:49.283Z,99297.34
2023-12-29T06:45:15.955Z,99299.44
2023-12-29T06:47:42.604Z,99294.91
2023-12-29T06:50:13.639Z,99299.25
2023-12-29T06:52:41.161Z,99307.88
2023-12-29T06:55:09.364Z,99301.13
2023-12-29T06:57:36.140Z,99306.19
2023-12-29T07:00:02.908Z,99306.19
2023-12-29T07:02:29.480Z,99310.50
2023-12-29T07:04:56.187Z,99306.31
2023-12-29T07:07:22.920Z,99312.41
2023-12-29T07:09:49.569Z,99308.84
2023-12-29T07:12:16.861Z,99305.44
2023-12-29T07:14:43.756Z,99308.06
2023-12-29T07:17:10.585Z,99308.06
2023-12-29T07:19:40.158Z,99307.16
2023-12-29T07:22:07.326Z,99306.31
2023-12-29T07:24:34.209Z,99294.00
2023-12-29T07:27:00.751Z,99300.94
2023-12-29T07:29:27.538Z,99291.38
2023-12-29T07:31:54.238Z,99295.69
2023-12-29T07:34:21.716Z,99295.69
2023-12-29T07:36:48.410Z,99292.28
2023-12-29T07:39:15.226Z,99299.25
2023-12-29T07:41:43.013Z,99292.28
2023-12-29T07:44:12.850Z,99301.88
2023-12-29T07:46:42.677Z,99297.53
2023-12-29T07:49:09.575Z,99300.09
2023-12-29T07:51:43.874Z,99298.69
2023-12-29T07:54:10.771Z,99310.63
2023-12-29T07:56:38.671Z,99322.94
2023-12-29T07:59:05.891Z,99310.69
2023-12-29T08:01:32.762Z,99308.28
2023-12-29T08:03:59.537Z,99316.91
2023-12-29T08:06:26.762Z,99320.31
2023-12-29T08:08:55.218Z,99316.84
2023-12-29T08:11:21.889Z,99303.88
2023-12-29T08:13:49.832Z,99305.56
2023-12-29T08:16:19.233Z,99304.72
2023-12-29T08:18:47.525Z,99313.34
2023-12-29T08:21:20.928Z,99317.69
2023-12-29T08:23:48.367Z,99315.97
2023-12-29T08:26:15.518Z,99320.50
2023-12-29T08:28:42.114Z,99320.50
2023-12-29T08:31:09.373Z,99325.56
2023-12-29T08:33:36.157Z,99319.53
2023-12-29T08:36:05.902Z,99300.06
2023-12-29T08:38:32.910Z,99313.63
2023-12-29T08:41:00.530Z,99323.97
2023-12-29T08:43:27.625Z,99331.84
2023-12-29T08:45:54.565Z,99330.19
2023-12-29T08:48:21.384Z,99337.88
2023-12-29T08:50:47.983Z,99332.91
2023-12-29T08:53:14.628Z,99340.59
2023-12-29T08:55:41.178Z,99314.88
2023-12-29T08:58:07.786Z,99318.81
2023-12-29T09:00:35.216Z,99331.84
2023-12-29T09:03:01.979Z,99326.59
2023-12-29T09:05:28.543Z,99331.03
2023-12-29T09:07:55.583Z,99340.59
2023-12-29T09:10:23.744Z,99334.50
2023-12-29T09:12:50.882Z,99346.63
2023-12-29T09:15:17.805Z,99336.28
2023-12-29T09:17:44.409Z,99343.41
2023-12-29T09:20:11.959Z,99353.75
2023-12-29T09:22:39.186Z,99345.00
2023-12-29T09:25:06.378Z,99344.19
2023-12-29T09:27:32.956Z,99335.44
2023-12-29T09:29:59.632Z,99342.56
2023-12-29T09:32:26.203Z,99335.81
2023-12-29T09:34:52.904Z,99351.13
2023-12-29T09:37:19.469Z,99350.16
2023-12-29T09:39:46.286Z,99334.25
2023-12-29T09:42:20.552Z,99364.28
2023-12-29T09:44:50.610Z,99356.56
2023-12-29T09:47:24.359Z,99359.97
2023-12-29T09:49:52.416Z,99348.69
2023-12-29T09:52:21.748Z,99353.03
2023-12-29T09:54:50.933Z,99351.22
2023-12-29T09:57:19.247Z,99359.13
2023-12-29T09:59:45.878Z,99357.22
2023-12-29T10:02:18.533Z,99341.53
2023-12-29T10:04:45.545Z,99348.50
2023-12-29T10:07:19.655Z,99346.81
2023-12-29T10:09:49.036Z,99335.53
2023-12-29T10:12:16.403Z,99344.19
2023-12-29T10:14:50.228Z,99343.22
2023-12-29T10:17:30.629Z,99336.28
2023-12-29T10:20:11.918Z,99329.13
2023-12-29T10:22:55.677Z,99325.56
2023-12-29T10:25:24.308Z,99327.34
2023-12-29T10:27:51.193Z,99323.25
2023-12-29T10:30:25.062Z,99320.31
2023-12-29T10:32:55.746Z,99311.13
2023-12-29T10:35:23.797Z,99311.66
2023-12-29T10:37:51.333Z,99309.97
2023-12-29T10:40:19.897Z,99308.28
2023-12-29T10:42:54.690Z,99312.41
2023-12-29T10:45:22.199Z,99311.56
2023-12-29T10:47:49.671Z,99300.19
2023-12-29T10:50:16.403Z,99286.09
2023-12-29T10:52:43.394Z,99288.63
2023-12-29T10:55:14.588Z,99295.69
2023-12-29T10:57:41.646Z,99290.41
2023-12-29T11:00:09.414Z,99281.69
2023-12-29T11:02:36.558Z,99282.53
2023-12-29T11:05:07.742Z,99288.50
2023-12-29T11:07:39.682Z,99278.84
2023-12-29T11:10:10.652Z,99268.59
2023-12-29T11:12:38.947Z,99274.44
2023-12-29T11:15:07.497Z,99264.94
2023-12-29T11:17:36.578Z,99270.84
2023-12-29T11:20:05.796Z,99262.19
2023-12-29T11:22:33.445Z,99260.44
2023-12-29T11:25:01.062Z,99253.16
2023-12-29T11:27:32.025Z,99256.63
2023-12-29T11:30:00.290Z,99249.59
2023-12-29T11:32:56.236Z,99253.91
2023-12-29T11:35:41.859Z,99248.66
2023-12-29T11:38:27.739Z,99249.38
2023-12-29T11:41:10.102Z,99255.47
2023-12-29T11:43:37.192Z,99251.16
2023-12-29T11:46:04.198Z,99249.28
2023-12-29T11:48:59.551Z,99250.03
2023-12-29T11:51:50.422Z,99240.34
2023-12-29T11:54:27.951Z,99236.03
2023-12-29T11:56:55.437Z,99229.81
2023-12-29T11:59:24.400Z,99223.63
2023-12-29T12:01:56.260Z,99226.13
2023-12-29T12:04:43.160Z,99221.81
2023-12-29T12:07:25.400Z,99224.22
2023-12-29T12:09:54.121Z,99210.47
2023-12-29T12:12:44.218Z,99217.09
2023-12-29T12:15:33.783Z,99210.03
2023-12-29T12:18:02.175Z,99214.25
2023-12-29T12:20:29.464Z,99216.78
2023-12-29T12:23:01.005Z,99217.59
2023-12-29T12:25:31.841Z,99212.97
2023-12-29T12:27:59.992Z,99216.56
2023-12-29T12:30:26.574Z,99202.44
2023-12-29T12:33:01.187Z,99198.66
2023-12-29T12:35:28.390Z,99195.41
2023-12-29T12:38:25.341Z,99189.81
2023-12-29T12:40:51.946Z,99213.19
2023-12-29T12:43:18.841Z,99209.72
2023-12-29T12:45:53.378Z,99202.88
2023-12-29T12:48:31.220Z,99208.75
2023-12-29T12:51:00.247Z,99217.63
2023-12-29T12:53:27.286Z,99222.25
2023-12-29T12:55:55.275Z,99212.78
2023-12-29T12:58:22.420Z,99217.81
2023-12-29T13:00:52.795Z,99227.19
2023-12-29T13:03:21.411Z,99216.47
2023-12-29T13:05:48.101Z,99215.50
2023-12-29T13:08:18.959Z,99205.41
2023-12-29T13:10:50.832Z,99198.66
2023-12-29T13:13:19.706Z,99210.88
2023-12-29T13:15:55.575Z,99213.63
2023-12-29T13:18:35.029Z,99210.88
2023-12-29T13:21:05.373Z,99221.31
2023-12-29T13:23:32.793Z,99222.56
2023-12-29T13:26:03.573Z,99213.72
2023-12-29T13:28:31.653Z,99201.94
2023-12-29T13:30:59.159Z,99217.63
2023-12-29T13:33:46.342Z,99198.03
2023-12-29T13:36:22.462Z,99207.31
2023-12-29T13:38:58.073Z,99215.56
2023-12-29T13:41:26.717Z,99207.19
2023-12-29T13:43:55.459Z,99200.59
2023-12-29T13:46:22.276Z,99215.63
2023-12-29T13:48:52.412Z,99210.25
2023-12-29T13:51:24.453Z,99188.97
2023-12-29T13:53:58.906Z,99210.34
2023-12-29T13:56:25.419Z,99202.13
2023-12-29T13:58:55.301Z,99213.81
2023-12-29T14:01:22.081Z,99204.09
2023-12-29T14:03:56.269Z,99207.59
2023-12-29T14:06:32.583Z,99216.56
2023-12-29T14:08:59.328Z,99217.19
2023-12-29T14:11:25.727Z,99212.25
2023-12-29T14:13:52.409Z,99208.53
2023-12-29T14:16:21.793Z,99215.72
2023-12-29T14:18:58.093Z,99206.97
2023-12-29T14:21:32.677Z,99210.97
2023-12-29T14:24:18.839Z,99205.91
2023-12-29T14:27:00.954Z,99206.34
2023-12-29T14:29:27.989Z,99206.97
2023-12-29T14:31:57.165Z,99214.88
2023-12-29T14:34:23.944Z,99215.72
2023-12-29T14:36:50.735Z,99218.22
2023-12-29T14:39:17.384Z,99226.03
2023-12-29T14:41:44.140Z,99230.56
2023-12-29T14:44:10.629Z,99227.72
2023-12-29T14:46:38.285Z,99232.16
2023-12-29T14:49:05.412Z,99230.38
2023-12-29T14:51:32.060Z,99229.41
2023-12-29T14:53:58.953Z,99239.94
2023-12-29T14:56:25.928Z,99234.56
2023-12-29T14:58:52.569Z,99231.06
2023-12-29T15:01:19.461Z,99228.44
2023-12-29T15:03:46.373Z,99226.25
2023-12-29T15:06:13.358Z,99229.19
2023-12-29T15:08:39.931Z,99229.00
2023-12-29T15:11:08.240Z,99220.34
2023-12-29T15:13:35.409Z,99208.53
2023-12-29T15:16:05.069Z,99230.44
2023-12-29T15:18:32.307Z,99226.22
2023-12-29T15:20:59.827Z,99222.75
2023-12-29T15:23:28.820Z,99219.38
2023-12-29T15:25:55.679Z,99219.16
2023-12-29T15:28:23.261Z,99209.38
2023-12-29T15:30:51.284Z,99194.59
2023-12-29T15:33:18.435Z,99201.47
2023-12-29T15:35:45.056Z,99204.94
2023-12-29T15:38:11.650Z,99209.47
2023-12-29T15:40:38.281Z,99206.50
2023-12-29T15:43:05.168Z,99206.72
2023-12-29T15:45:32.390Z,99199.53
2023-12-29T15:47:59.846Z,99182.31
2023-12-29T15:50:26.672Z,99200.50
2023-12-29T15:52:53.826Z,99205.56
2023-12-29T15:55:20.616Z,99196.78
2023-12-29T15:57:47.226Z,99207.88
2023-12-29T16:00:14.943Z,99200.28
2023-12-29T16:02:41.932Z,99212.50
2023-12-29T16:05:08.787Z,99204.59
2023-12-29T16:07:36.014Z,99202.19
2023-12-29T16:10:04.678Z,99206.50
2023-12-29T16:12:31.553Z,99209.88
2023-12-29T16:14:59.342Z,99211.34
2023-12-29T16:17:25.986Z,99203.53
2023-12-29T16:19:52.676Z,99204.47
2023-12-29T16:22:19.858Z,99196.56
2023-12-29T16:24:48.793Z,99201.72
2023-12-29T16:27:15.712Z,99199.22
2023-12-29T16:29:43.368Z,99201.72
2023-12-29T16:32:09.949Z,99200.78
2023-12-29T16:34:36.597Z,99198.88
2023-12-29T16:37:03.176Z,99204.91
2023-12-29T16:39:29.696Z,99202.69
2023-12-29T16:41:56.385Z,99209.75
2023-12-29T16:44:22.868Z,99202.69
2023-12-29T16:46:49.470Z,99194.78
2023-12-29T16:49:16.314Z,99198.16
2023-12-29T16:51:44.827Z,99195.53
2023-12-29T16:54:12.207Z,99184.22
2023-12-29T16:56:39.059Z,99191.63
2023-12-29T16:59:07.086Z,99186.38
2023-12-29T17:01:34.080Z,99196.69
2023-12-29T17:04:00.988Z,99198.38
2023-12-29T17:06:28.638Z,99193.59
2023-12-29T17:08:55.347Z,99190.13
2023-12-29T17:11:21.987Z,99183.06
2023-12-29T17:13:48.538Z,99180.88
2023-12-29T17:16:17.031Z,99186.16
2023-12-29T17:18:44.396Z,99194.56
2023-12-29T17:21:11.844Z,99195.63
2023-12-29T17:23:38.634Z,99200.03
2023-12-29T17:26:10.975Z,99200.78
2023-12-29T17:28:37.683Z,99198.25
2023-12-29T17:31:05.239Z,99201.63
2023-12-29T17:33:31.980Z,99207.13
2023-12-29T17:35:58.525Z,99210.59
2023-12-29T17:38:25.061Z,99209.63
2023-12-29T17:40:51.634Z,99205.31
2023-12-29T17:43:18.425Z,99202.81
2023-12-29T17:45:45.004Z,99201.97
2023-12-29T17:48:11.648Z,99188.50
2023-12-29T17:50:38.077Z,99210.38
2023-12-29T17:53:04.879Z,99210.59
2023-12-29T17:55:31.547Z,99202.06
2023-12-29T17:57:58.026Z,99223.06
2023-12-29T18:00:27.674Z,99210.84
2023-12-29T18:02:54.299Z,99209.13
2023-12-29T18:05:22.087Z,99212.59
2023-12-29T18:07:48.961Z,99210.84
2023-12-29T18:10:15.641Z,99207.31
2023-12-29T18:12:42.387Z,99217.78
2023-12-29T18:15:12.374Z,99218.84
2023-12-29T18:17:39.455Z,99218.19
2023-12-29T18:20:06.864Z,99205.78
2023-12-29T18:22:33.503Z,99193.97
2023-12-29T18:25:00.820Z,99218.94
2023-12-29T18:27:33.666Z,99211.25
2023-12-29T18:30:00.605Z,99213.88
2023-12-29T18:32:27.298Z,99209.56
2023-12-29T18:34:54.080Z,99211.03
2023-12-29T18:37:21.646Z,99206.63
2023-12-29T18:39:49.268Z,99210.22
2023-12-29T18:42:16.609Z,99207.44
2023-12-29T18:44:43.254Z,99200.72
2023-12-29T18:47:10.673Z,99194.09
2023-12-29T18:49:37.900Z,99208.75
2023-12-29T18:52:05.053Z,99208.63
2023-12-29T18:54:34.836Z,99209.47
2023-12-29T18:57:02.697Z,99220.84
2023-12-29T18:59:29.728Z,99210.63
2023-12-29T19:01:58.587Z,99213.06
2023-12-29T19:04:26.273Z,99212.94
2023-12-29T19:06:52.993Z,99214.09
2023-12-29T19:09:19.622Z,99215.06
2023-12-29T19:11:46.263Z,99216.84
2023-12-29T19:14:12.797Z,99228.13
2023-12-29T19:16:39.567Z,99222.84
2023-12-29T19:19:06.056Z,99216.72
2023-12-29T19:21:34.633Z,99207.28
2023-12-29T19:24:02.332Z,99202.84
2023-12-29T19:26:29.962Z,99205.25
2023-12-29T19:28:57.044Z,99196.31
2023-12-29T19:31:26.128Z,99208.09
2023-12-29T19:33:54.529Z,99198.41
2023-12-29T19:36:22.148Z,99206.19
2023-12-29T19:38:52.656Z,99188.72
2023-12-29T19:41:22.847Z,99188.59
2023-12-29T19:43:49.978Z,99179.34
2023-12-29T19:46:18.085Z,99190.63
2023-12-29T19:48:46.319Z,99174.50
2023-12-29T19:51:13.077Z,99185.94
2023-12-29T19:53:39.676Z,99187.75
2023-12-29T19:56:06.491Z,99188.72
2023-12-29T19:58:33.483Z,99181.75
2023-12-29T20:01:02.590Z,99188.06
2023-12-29T20:03:32.514Z,99185.78
2023-12-29T20:05:59.724Z,99193.47
2023-12-29T20:08:26.533Z,99199.56
2023-12-29T20:10:54.928Z,99197.78
2023-12-29T20:13:21.571Z,99182.19
2023-12-29T20:15:48.121Z,99190.84
2023-12-29T20:18:15.122Z,99187.44
2023-12-29T20:20:41.824Z,99198.81
2023-12-29T20:23:09.677Z,99194.31
2023-12-29T20:25:36.857Z,99200.75
2023-12-29T20:28:03.872Z,99198.75
2023-12-29T20:30:30.693Z,99189.88
2023-12-29T20:32:58.025Z,99190.09
2023-12-29T20:35:24.946Z,99193.56
2023-12-29T20:37:51.471Z,99200.41
2023-12-29T20:40:18.609Z,99205.69
2023-12-29T20:42:47.071Z,99204.22
2023-12-29T20:45:13.805Z,99194.22
2023-12-29T20:47:40.373Z,99221.50
2023-12-29T20:50:07.783Z,99215.72
2023-12-29T20:52:34.592Z,99203.50
2023-12-29T20:55:01.698Z,99202.25
2023-12-29T20:57:28.345Z,99214.88
2023-12-29T20:59:55.053Z,99219.31
2023-12-29T21:02:21.481Z,99218.22
2023-12-29T21:04:48.128Z,99194.53
2023-12-29T21:07:14.747Z,99219.31
2023-12-29T21:09:41.284Z,99222.88
2023-12-29T21:12:08.589Z,99219.41
2023-12-29T21:14:35.239Z,99203.59
2023-12-29T21:17:03.017Z,99205.38
2023-12-29T21:19:30.267Z,99204.44
2023-12-29T21:21:56.978Z,99203.59
2023-12-29T21:24:23.517Z,99196.00
2023-12-29T21:26:50.071Z,99194.13
2023-12-29T21:29:16.715Z,99179.50
2023-12-29T21:31:43.465Z,99180.19
2023-12-29T21:34:10.373Z,99196.75
2023-12-29T21:36:37.209Z,99195.06
2023-12-29T21:39:05.263Z,99182.00
2023-12-29T21:41:36.414Z,99203.72
2023-12-29T21:44:04.609Z,99205.59
2023-12-29T21:46:31.522Z,99189.47
2023-12-29T21:48:58.240Z,99186.13
2023-12-29T21:51:28.004Z,99200.25
2023-12-29T21:53:54.570Z,99199.28
2023-12-29T21:56:21.104Z,99194.66
2023-12-29T21:58:51.936Z,99206.56
2023-12-29T22:01:39.107Z,99212.78
2023-12-29T22:04:08.793Z,99214.25
2023-12-29T22:06:36.800Z,99211.72
2023-12-29T22:09:03.649Z,99207.31
2023-12-29T22:11:30.548Z,99211.09
2023-12-29T22:13:57.240Z,99228.38
2023-12-29T22:16:24.884Z,99215.22
2023-12-29T22:18:51.727Z,99210.88
2023-12-29T22:21:19.940Z,99209.31
2023-12-29T22:23:47.437Z,99229.22
2023-12-29T22:26:15.352Z,99216.13
2023-12-29T22:28:43.376Z,99227.63
2023-12-29T22:31:15.144Z,99214.56
2023-12-29T22:33:43.523Z,99225.84
2023-12-29T22:36:11.447Z,99220.81
2023-12-29T22:38:38.321Z,99217.00
2023-12-29T22:41:12.492Z,99207.38
2023-12-29T22:43:39.347Z,99205.00
2023-12-29T22:46:06.506Z,99210.03
2023-12-29T22:48:33.201Z,99206.03
2023-12-29T22:50:59.969Z,99205.59
2023-12-29T22:53:27.305Z,99211.09
2023-12-29T22:55:55.113Z,99192.13
2023-12-29T22:58:23.227Z,99182.66
2023-12-29T23:00:50.915Z,99201.81
2023-12-29T23:03:18.059Z,99196.34
2023-12-29T23:05:45.377Z,99191.06
2023-12-29T23:08:12.399Z,99184.84
2023-12-29T23:10:38.970Z,99196.13
2023-12-29T23:13:05.946Z,99196.13
2023-12-29T23:15:32.943Z,99177.72
2023-12-29T23:18:00.380Z,99194.53
2023-12-29T23:20:27.082Z,99197.19
2023-12-29T23:22:53.655Z,99205.28
2023-12-29T23:25:20.274Z,99205.09
2023-12-29T23:27:46.858Z,99219.00
2023-12-29T23:30:15.050Z,99218.25
2023-12-29T23:32:41.688Z,99224.28
2023-12-29T23:35:14.422Z,99225.13
2023-12-29T23:37:47.048Z,99229.63
2023-12-29T23:40:13.757Z,99231.44
2023-12-29T23:42:40.382Z,99219.09
2023-12-29T23:45:07.933Z,99213.19
2023-12-29T23:47:34.736Z,99210.56
2023-12-29T23:50:01.366Z,99207.91
2023-12-29T23:52:28.341Z,99212.03
2023-12-29T23:54:54.919Z,99209.00
2023-12-29T23:57:21.470Z,99206.25
2023-12-29T23:59:48.116Z,99206.25
